sensor_id;sensor_type;location;lat;lon;timestamp;P1;durP1;ratioP1;P2;durP2;ratioP2
12892;SDS011;6514;48.606;9.222;2023-02-01T00:00:29;6.30;;;3.93;;
12892;SDS011;6514;48.606;9.222;2023-02-01T00:02:58;4.90;;;3.83;;
12892;SDS011;6514;48.606;9.222;2023-02-01T00:05:24;7.83;;;4.77;;
12892;SDS011;6514;48.606;9.222;2023-02-01T00:07:51;4.83;;;4.10;;
12892;SDS011;6514;48.606;9.222;2023-02-01T00:10:18;5.73;;;3.97;;
12892;SDS011;6514;48.606;9.222;2023-02-01T00:12:45;5.13;;;4.00;;
12892;SDS011;6514;48.606;9.222;2023-02-01T00:15:13;4.87;;;3.67;;
12892;SDS011;6514;48.606;9.222;2023-02-01T00:17:40;5.70;;;3.90;;
12892;SDS011;6514;48.606;9.222;2023-02-01T00:20:08;4.97;;;3.77;;
12892;SDS011;6514;48.606;9.222;2023-02-01T00:22:36;5.47;;;3.97;;
12892;SDS011;6514;48.606;9.222;2023-02-01T00:25:03;5.53;;;4.03;;
12892;SDS011;6514;48.606;9.222;2023-02-01T00:27:30;4.10;;;3.47;;
12892;SDS011;6514;48.606;9.222;2023-02-01T00:29:57;4.00;;;3.53;;
12892;SDS011;6514;48.606;9.222;2023-02-01T00:32:25;4.77;;;3.77;;
12892;SDS011;6514;48.606;9.222;2023-02-01T00:34:52;4.60;;;4.20;;
12892;SDS011;6514;48.606;9.222;2023-02-01T00:37:18;6.17;;;3.83;;
12892;SDS011;6514;48.606;9.222;2023-02-01T00:39:46;5.20;;;4.50;;
12892;SDS011;6514;48.606;9.222;2023-02-01T00:42:14;5.27;;;4.30;;
12892;SDS011;6514;48.606;9.222;2023-02-01T00:44:41;4.47;;;3.43;;
12892;SDS011;6514;48.606;9.222;2023-02-01T00:47:08;4.93;;;4.20;;
12892;SDS011;6514;48.606;9.222;2023-02-01T00:49:36;4.83;;;3.90;;
12892;SDS011;6514;48.606;9.222;2023-02-01T00:52:03;4.97;;;3.80;;
12892;SDS011;6514;48.606;9.222;2023-02-01T00:54:30;5.67;;;4.07;;
12892;SDS011;6514;48.606;9.222;2023-02-01T00:56:57;6.20;;;3.97;;
12892;SDS011;6514;48.606;9.222;2023-02-01T00:59:24;5.00;;;3.70;;
12892;SDS011;6514;48.606;9.222;2023-02-01T01:01:51;4.40;;;3.90;;
12892;SDS011;6514;48.606;9.222;2023-02-01T01:04:17;3.97;;;3.57;;
12892;SDS011;6514;48.606;9.222;2023-02-01T01:06:46;4.37;;;3.60;;
12892;SDS011;6514;48.606;9.222;2023-02-01T01:09:12;4.83;;;3.53;;
12892;SDS011;6514;48.606;9.222;2023-02-01T01:11:39;4.73;;;3.83;;
12892;SDS011;6514;48.606;9.222;2023-02-01T01:14:06;4.47;;;3.50;;
12892;SDS011;6514;48.606;9.222;2023-02-01T01:16:33;5.03;;;3.50;;
12892;SDS011;6514;48.606;9.222;2023-02-01T01:19:01;4.57;;;3.27;;
12892;SDS011;6514;48.606;9.222;2023-02-01T01:21:28;5.00;;;3.60;;
12892;SDS011;6514;48.606;9.222;2023-02-01T01:23:57;4.20;;;3.37;;
12892;SDS011;6514;48.606;9.222;2023-02-01T01:26:25;3.23;;;2.93;;
12892;SDS011;6514;48.606;9.222;2023-02-01T01:28:54;3.30;;;2.87;;
12892;SDS011;6514;48.606;9.222;2023-02-01T01:31:21;3.00;;;2.70;;
12892;SDS011;6514;48.606;9.222;2023-02-01T01:33:49;3.17;;;2.80;;
12892;SDS011;6514;48.606;9.222;2023-02-01T01:36:18;3.80;;;3.10;;
12892;SDS011;6514;48.606;9.222;2023-02-01T01:38:45;3.30;;;3.00;;
12892;SDS011;6514;48.606;9.222;2023-02-01T01:41:14;3.20;;;2.70;;
12892;SDS011;6514;48.606;9.222;2023-02-01T01:43:49;3.50;;;3.17;;
12892;SDS011;6514;48.606;9.222;2023-02-01T01:46:19;3.40;;;3.10;;
12892;SDS011;6514;48.606;9.222;2023-02-01T01:48:48;3.43;;;3.13;;
12892;SDS011;6514;48.606;9.222;2023-02-01T01:51:19;3.37;;;3.07;;
12892;SDS011;6514;48.606;9.222;2023-02-01T01:53:52;3.33;;;2.87;;
12892;SDS011;6514;48.606;9.222;2023-02-01T01:56:24;3.13;;;2.83;;
12892;SDS011;6514;48.606;9.222;2023-02-01T01:58:52;4.03;;;3.43;;
12892;SDS011;6514;48.606;9.222;2023-02-01T02:01:20;4.17;;;2.77;;
12892;SDS011;6514;48.606;9.222;2023-02-01T02:03:47;2.83;;;2.50;;
12892;SDS011;6514;48.606;9.222;2023-02-01T02:06:16;3.23;;;2.30;;
12892;SDS011;6514;48.606;9.222;2023-02-01T02:08:52;3.67;;;2.50;;
12892;SDS011;6514;48.606;9.222;2023-02-01T02:11:19;3.60;;;2.80;;
12892;SDS011;6514;48.606;9.222;2023-02-01T02:13:48;2.50;;;2.30;;
12892;SDS011;6514;48.606;9.222;2023-02-01T02:16:19;2.57;;;2.07;;
12892;SDS011;6514;48.606;9.222;2023-02-01T02:18:56;3.13;;;2.60;;
12892;SDS011;6514;48.606;9.222;2023-02-01T02:21:49;3.30;;;2.53;;
12892;SDS011;6514;48.606;9.222;2023-02-01T02:24:39;3.20;;;2.43;;
12892;SDS011;6514;48.606;9.222;2023-02-01T02:27:28;2.60;;;1.97;;
12892;SDS011;6514;48.606;9.222;2023-02-01T02:36:08;2.90;;;2.43;;
12892;SDS011;6514;48.606;9.222;2023-02-01T02:38:44;2.20;;;2.00;;
12892;SDS011;6514;48.606;9.222;2023-02-01T02:41:19;2.10;;;2.00;;
12892;SDS011;6514;48.606;9.222;2023-02-01T02:44:09;2.57;;;2.30;;
12892;SDS011;6514;48.606;9.222;2023-02-01T02:46:59;2.77;;;2.53;;
12892;SDS011;6514;48.606;9.222;2023-02-01T02:49:52;3.53;;;2.33;;
12892;SDS011;6514;48.606;9.222;2023-02-01T02:52:42;3.33;;;2.80;;
12892;SDS011;6514;48.606;9.222;2023-02-01T02:55:31;2.60;;;2.40;;
12892;SDS011;6514;48.606;9.222;2023-02-01T02:58:01;3.57;;;2.63;;
12892;SDS011;6514;48.606;9.222;2023-02-01T03:00:48;2.97;;;2.50;;
12892;SDS011;6514;48.606;9.222;2023-02-01T03:03:35;3.60;;;2.63;;
12892;SDS011;6514;48.606;9.222;2023-02-01T03:06:22;2.90;;;2.33;;
12892;SDS011;6514;48.606;9.222;2023-02-01T03:08:50;3.60;;;2.67;;
12892;SDS011;6514;48.606;9.222;2023-02-01T03:11:19;2.67;;;2.43;;
12892;SDS011;6514;48.606;9.222;2023-02-01T03:13:47;2.90;;;2.70;;
12892;SDS011;6514;48.606;9.222;2023-02-01T03:16:18;3.43;;;2.70;;
12892;SDS011;6514;48.606;9.222;2023-02-01T03:18:52;4.13;;;3.00;;
12892;SDS011;6514;48.606;9.222;2023-02-01T03:21:25;3.33;;;3.00;;
12892;SDS011;6514;48.606;9.222;2023-02-01T03:23:56;3.23;;;2.93;;
12892;SDS011;6514;48.606;9.222;2023-02-01T03:26:27;4.33;;;3.20;;
12892;SDS011;6514;48.606;9.222;2023-02-01T03:28:57;2.70;;;2.50;;
12892;SDS011;6514;48.606;9.222;2023-02-01T03:31:28;4.03;;;2.97;;
12892;SDS011;6514;48.606;9.222;2023-02-01T03:33:55;3.33;;;3.03;;
12892;SDS011;6514;48.606;9.222;2023-02-01T03:36:25;3.20;;;2.90;;
12892;SDS011;6514;48.606;9.222;2023-02-01T03:38:58;3.00;;;2.70;;
12892;SDS011;6514;48.606;9.222;2023-02-01T03:41:32;3.77;;;3.20;;
12892;SDS011;6514;48.606;9.222;2023-02-01T03:44:06;4.23;;;3.83;;
12892;SDS011;6514;48.606;9.222;2023-02-01T03:46:39;3.57;;;3.27;;
12892;SDS011;6514;48.606;9.222;2023-02-01T03:49:17;2.80;;;2.53;;
12892;SDS011;6514;48.606;9.222;2023-02-01T03:51:51;3.00;;;2.70;;
12892;SDS011;6514;48.606;9.222;2023-02-01T03:54:19;3.30;;;3.00;;
12892;SDS011;6514;48.606;9.222;2023-02-01T03:56:46;3.07;;;2.67;;
12892;SDS011;6514;48.606;9.222;2023-02-01T03:59:14;3.20;;;2.73;;
12892;SDS011;6514;48.606;9.222;2023-02-01T04:01:41;3.20;;;2.80;;
12892;SDS011;6514;48.606;9.222;2023-02-01T04:04:09;3.67;;;2.43;;
12892;SDS011;6514;48.606;9.222;2023-02-01T04:06:44;3.00;;;2.80;;
12892;SDS011;6514;48.606;9.222;2023-02-01T04:09:12;3.23;;;2.83;;
12892;SDS011;6514;48.606;9.222;2023-02-01T04:11:39;3.53;;;3.23;;
12892;SDS011;6514;48.606;9.222;2023-02-01T04:14:06;4.10;;;3.13;;
12892;SDS011;6514;48.606;9.222;2023-02-01T04:16:33;4.73;;;4.00;;
12892;SDS011;6514;48.606;9.222;2023-02-01T04:19:01;3.70;;;3.33;;
12892;SDS011;6514;48.606;9.222;2023-02-01T04:21:28;3.20;;;2.83;;
12892;SDS011;6514;48.606;9.222;2023-02-01T04:23:55;3.43;;;2.63;;
12892;SDS011;6514;48.606;9.222;2023-02-01T04:26:23;3.57;;;3.10;;
12892;SDS011;6514;48.606;9.222;2023-02-01T04:28:50;5.57;;;3.70;;
12892;SDS011;6514;48.606;9.222;2023-02-01T04:31:18;2.70;;;2.50;;
12892;SDS011;6514;48.606;9.222;2023-02-01T04:33:50;3.10;;;2.80;;
12892;SDS011;6514;48.606;9.222;2023-02-01T04:36:18;3.17;;;2.87;;
12892;SDS011;6514;48.606;9.222;2023-02-01T04:38:47;3.13;;;2.83;;
12892;SDS011;6514;48.606;9.222;2023-02-01T04:41:14;3.60;;;2.67;;
12892;SDS011;6514;48.606;9.222;2023-02-01T04:43:45;3.60;;;3.07;;
12892;SDS011;6514;48.606;9.222;2023-02-01T04:46:11;3.30;;;2.97;;
12892;SDS011;6514;48.606;9.222;2023-02-01T04:48:39;3.33;;;2.80;;
12892;SDS011;6514;48.606;9.222;2023-02-01T04:51:06;3.10;;;2.80;;
12892;SDS011;6514;48.606;9.222;2023-02-01T04:53:33;3.37;;;3.07;;
12892;SDS011;6514;48.606;9.222;2023-02-01T04:56:01;4.47;;;3.13;;
12892;SDS011;6514;48.606;9.222;2023-02-01T04:58:28;3.70;;;2.60;;
12892;SDS011;6514;48.606;9.222;2023-02-01T05:00:57;5.97;;;4.43;;
12892;SDS011;6514;48.606;9.222;2023-02-01T05:03:24;3.27;;;2.90;;
12892;SDS011;6514;48.606;9.222;2023-02-01T05:05:50;4.33;;;3.50;;
12892;SDS011;6514;48.606;9.222;2023-02-01T05:08:18;3.70;;;3.33;;
12892;SDS011;6514;48.606;9.222;2023-02-01T05:10:50;3.67;;;3.03;;
12892;SDS011;6514;48.606;9.222;2023-02-01T05:13:17;5.20;;;3.73;;
12892;SDS011;6514;48.606;9.222;2023-02-01T05:16:03;4.20;;;2.90;;
12892;SDS011;6514;48.606;9.222;2023-02-01T05:18:31;6.03;;;3.77;;
12892;SDS011;6514;48.606;9.222;2023-02-01T05:20:57;2.80;;;2.43;;
12892;SDS011;6514;48.606;9.222;2023-02-01T05:23:24;3.60;;;2.30;;
12892;SDS011;6514;48.606;9.222;2023-02-01T05:25:51;3.57;;;2.33;;
12892;SDS011;6514;48.606;9.222;2023-02-01T05:28:18;4.20;;;2.60;;
12892;SDS011;6514;48.606;9.222;2023-02-01T05:30:45;2.50;;;2.30;;
12892;SDS011;6514;48.606;9.222;2023-02-01T05:33:13;3.33;;;2.77;;
12892;SDS011;6514;48.606;9.222;2023-02-01T05:35:40;3.30;;;2.40;;
12892;SDS011;6514;48.606;9.222;2023-02-01T05:38:07;3.20;;;2.60;;
12892;SDS011;6514;48.606;9.222;2023-02-01T05:40:34;2.30;;;2.10;;
12892;SDS011;6514;48.606;9.222;2023-02-01T05:43:00;3.37;;;2.50;;
12892;SDS011;6514;48.606;9.222;2023-02-01T05:45:27;3.03;;;2.43;;
12892;SDS011;6514;48.606;9.222;2023-02-01T05:47:54;4.60;;;2.67;;
12892;SDS011;6514;48.606;9.222;2023-02-01T05:50:22;2.30;;;2.10;;
12892;SDS011;6514;48.606;9.222;2023-02-01T05:52:49;3.50;;;2.33;;
12892;SDS011;6514;48.606;9.222;2023-02-01T05:55:16;3.27;;;2.10;;
12892;SDS011;6514;48.606;9.222;2023-02-01T05:57:43;2.30;;;2.07;;
12892;SDS011;6514;48.606;9.222;2023-02-01T06:00:10;2.50;;;2.20;;
12892;SDS011;6514;48.606;9.222;2023-02-01T06:02:38;2.97;;;2.13;;
12892;SDS011;6514;48.606;9.222;2023-02-01T06:05:06;2.30;;;2.03;;
12892;SDS011;6514;48.606;9.222;2023-02-01T06:07:35;2.57;;;2.10;;
12892;SDS011;6514;48.606;9.222;2023-02-01T06:10:02;2.57;;;2.37;;
12892;SDS011;6514;48.606;9.222;2023-02-01T06:12:30;2.00;;;1.80;;
12892;SDS011;6514;48.606;9.222;2023-02-01T06:14:56;2.73;;;2.40;;
12892;SDS011;6514;48.606;9.222;2023-02-01T06:17:24;2.10;;;1.90;;
12892;SDS011;6514;48.606;9.222;2023-02-01T06:19:51;2.40;;;2.20;;
12892;SDS011;6514;48.606;9.222;2023-02-01T06:22:18;2.30;;;1.80;;
12892;SDS011;6514;48.606;9.222;2023-02-01T06:24:47;2.40;;;2.00;;
12892;SDS011;6514;48.606;9.222;2023-02-01T06:27:14;2.70;;;2.20;;
12892;SDS011;6514;48.606;9.222;2023-02-01T06:29:41;2.90;;;2.13;;
12892;SDS011;6514;48.606;9.222;2023-02-01T06:32:08;3.30;;;2.07;;
12892;SDS011;6514;48.606;9.222;2023-02-01T06:34:35;3.20;;;2.10;;
12892;SDS011;6514;48.606;9.222;2023-02-01T06:37:04;2.37;;;1.97;;
12892;SDS011;6514;48.606;9.222;2023-02-01T06:39:31;2.67;;;1.90;;
12892;SDS011;6514;48.606;9.222;2023-02-01T06:41:59;3.10;;;2.17;;
12892;SDS011;6514;48.606;9.222;2023-02-01T06:44:26;3.67;;;2.60;;
12892;SDS011;6514;48.606;9.222;2023-02-01T06:46:53;3.40;;;2.40;;
12892;SDS011;6514;48.606;9.222;2023-02-01T06:49:21;3.77;;;2.70;;
12892;SDS011;6514;48.606;9.222;2023-02-01T06:51:47;4.37;;;2.33;;
12892;SDS011;6514;48.606;9.222;2023-02-01T06:54:14;2.63;;;2.10;;
12892;SDS011;6514;48.606;9.222;2023-02-01T06:56:41;2.50;;;2.07;;
12892;SDS011;6514;48.606;9.222;2023-02-01T06:59:10;3.23;;;2.57;;
12892;SDS011;6514;48.606;9.222;2023-02-01T07:01:37;3.40;;;2.33;;
12892;SDS011;6514;48.606;9.222;2023-02-01T07:04:04;3.30;;;2.50;;
12892;SDS011;6514;48.606;9.222;2023-02-01T07:06:31;3.13;;;2.50;;
12892;SDS011;6514;48.606;9.222;2023-02-01T07:08:58;2.37;;;2.07;;
12892;SDS011;6514;48.606;9.222;2023-02-01T07:11:25;4.10;;;2.30;;
12892;SDS011;6514;48.606;9.222;2023-02-01T07:13:53;3.27;;;2.30;;
12892;SDS011;6514;48.606;9.222;2023-02-01T07:16:21;4.33;;;2.73;;
12892;SDS011;6514;48.606;9.222;2023-02-01T07:18:49;2.97;;;2.40;;
12892;SDS011;6514;48.606;9.222;2023-02-01T07:21:16;3.17;;;2.33;;
12892;SDS011;6514;48.606;9.222;2023-02-01T07:23:43;3.20;;;2.70;;
12892;SDS011;6514;48.606;9.222;2023-02-01T07:26:11;2.80;;;2.47;;
12892;SDS011;6514;48.606;9.222;2023-02-01T07:28:39;2.90;;;2.40;;
12892;SDS011;6514;48.606;9.222;2023-02-01T07:31:07;3.33;;;2.57;;
12892;SDS011;6514;48.606;9.222;2023-02-01T07:33:36;2.83;;;2.27;;
12892;SDS011;6514;48.606;9.222;2023-02-01T07:36:04;3.00;;;2.17;;
12892;SDS011;6514;48.606;9.222;2023-02-01T07:38:32;2.53;;;2.33;;
12892;SDS011;6514;48.606;9.222;2023-02-01T07:40:59;2.73;;;2.13;;
12892;SDS011;6514;48.606;9.222;2023-02-01T07:43:27;2.70;;;2.10;;
12892;SDS011;6514;48.606;9.222;2023-02-01T07:45:54;2.70;;;2.30;;
12892;SDS011;6514;48.606;9.222;2023-02-01T07:48:22;3.77;;;2.30;;
12892;SDS011;6514;48.606;9.222;2023-02-01T07:50:57;3.50;;;2.33;;
12892;SDS011;6514;48.606;9.222;2023-02-01T07:53:25;2.80;;;2.60;;
12892;SDS011;6514;48.606;9.222;2023-02-01T07:55:52;2.80;;;2.50;;
12892;SDS011;6514;48.606;9.222;2023-02-01T07:58:20;3.07;;;2.77;;
12892;SDS011;6514;48.606;9.222;2023-02-01T08:00:47;2.53;;;2.10;;
12892;SDS011;6514;48.606;9.222;2023-02-01T08:03:32;2.90;;;2.50;;
12892;SDS011;6514;48.606;9.222;2023-02-01T08:06:00;3.93;;;2.20;;
12892;SDS011;6514;48.606;9.222;2023-02-01T08:08:27;2.50;;;2.30;;
12892;SDS011;6514;48.606;9.222;2023-02-01T08:10:56;2.20;;;2.00;;
12892;SDS011;6514;48.606;9.222;2023-02-01T08:13:23;4.43;;;2.47;;
12892;SDS011;6514;48.606;9.222;2023-02-01T08:15:50;3.10;;;2.20;;
12892;SDS011;6514;48.606;9.222;2023-02-01T08:18:17;2.93;;;2.00;;
12892;SDS011;6514;48.606;9.222;2023-02-01T08:20:45;4.27;;;1.90;;
12892;SDS011;6514;48.606;9.222;2023-02-01T08:23:14;2.30;;;2.03;;
12892;SDS011;6514;48.606;9.222;2023-02-01T08:25:40;2.43;;;2.10;;
12892;SDS011;6514;48.606;9.222;2023-02-01T08:28:07;2.43;;;2.17;;
12892;SDS011;6514;48.606;9.222;2023-02-01T08:30:36;3.20;;;2.30;;
12892;SDS011;6514;48.606;9.222;2023-02-01T08:33:03;3.27;;;1.97;;
12892;SDS011;6514;48.606;9.222;2023-02-01T08:35:32;2.97;;;2.63;;
12892;SDS011;6514;48.606;9.222;2023-02-01T08:38:00;3.13;;;2.20;;
12892;SDS011;6514;48.606;9.222;2023-02-01T08:40:29;3.17;;;2.30;;
12892;SDS011;6514;48.606;9.222;2023-02-01T08:42:55;4.40;;;2.10;;
12892;SDS011;6514;48.606;9.222;2023-02-01T08:45:23;3.47;;;2.00;;
12892;SDS011;6514;48.606;9.222;2023-02-01T08:47:51;3.13;;;2.17;;
12892;SDS011;6514;48.606;9.222;2023-02-01T08:50:19;3.97;;;2.63;;
12892;SDS011;6514;48.606;9.222;2023-02-01T08:52:47;3.23;;;2.00;;
12892;SDS011;6514;48.606;9.222;2023-02-01T08:55:15;2.30;;;1.90;;
12892;SDS011;6514;48.606;9.222;2023-02-01T08:57:43;2.30;;;1.40;;
12892;SDS011;6514;48.606;9.222;2023-02-01T09:00:11;2.47;;;1.60;;
12892;SDS011;6514;48.606;9.222;2023-02-01T09:02:40;2.30;;;1.50;;
12892;SDS011;6514;48.606;9.222;2023-02-01T09:05:07;3.20;;;1.87;;
12892;SDS011;6514;48.606;9.222;2023-02-01T09:07:36;3.83;;;1.87;;
12892;SDS011;6514;48.606;9.222;2023-02-01T09:10:04;1.97;;;1.53;;
12892;SDS011;6514;48.606;9.222;2023-02-01T09:12:32;3.03;;;1.63;;
12892;SDS011;6514;48.606;9.222;2023-02-01T09:15:01;2.47;;;1.60;;
12892;SDS011;6514;48.606;9.222;2023-02-01T09:17:29;3.93;;;1.80;;
12892;SDS011;6514;48.606;9.222;2023-02-01T09:19:56;3.40;;;2.10;;
12892;SDS011;6514;48.606;9.222;2023-02-01T09:22:23;3.27;;;2.23;;
12892;SDS011;6514;48.606;9.222;2023-02-01T09:24:51;2.27;;;1.63;;
12892;SDS011;6514;48.606;9.222;2023-02-01T09:27:18;3.03;;;1.90;;
12892;SDS011;6514;48.606;9.222;2023-02-01T09:29:45;3.20;;;1.70;;
12892;SDS011;6514;48.606;9.222;2023-02-01T09:32:18;5.60;;;2.17;;
12892;SDS011;6514;48.606;9.222;2023-02-01T09:34:45;3.93;;;2.10;;
12892;SDS011;6514;48.606;9.222;2023-02-01T09:37:12;2.20;;;1.90;;
12892;SDS011;6514;48.606;9.222;2023-02-01T09:39:40;3.30;;;1.77;;
12892;SDS011;6514;48.606;9.222;2023-02-01T09:42:14;4.53;;;2.13;;
12892;SDS011;6514;48.606;9.222;2023-02-01T09:44:50;4.00;;;2.07;;
12892;SDS011;6514;48.606;9.222;2023-02-01T09:47:28;3.67;;;1.80;;
12892;SDS011;6514;48.606;9.222;2023-02-01T09:49:58;3.87;;;1.87;;
12892;SDS011;6514;48.606;9.222;2023-02-01T09:52:29;2.17;;;1.97;;
12892;SDS011;6514;48.606;9.222;2023-02-01T09:55:01;2.93;;;2.00;;
12892;SDS011;6514;48.606;9.222;2023-02-01T09:57:37;4.63;;;2.30;;
12892;SDS011;6514;48.606;9.222;2023-02-01T10:00:13;4.30;;;2.40;;
12892;SDS011;6514;48.606;9.222;2023-02-01T10:02:46;5.23;;;2.50;;
12892;SDS011;6514;48.606;9.222;2023-02-01T10:05:14;4.37;;;2.90;;
12892;SDS011;6514;48.606;9.222;2023-02-01T10:07:47;3.10;;;2.20;;
12892;SDS011;6514;48.606;9.222;2023-02-01T10:10:25;3.83;;;2.20;;
12892;SDS011;6514;48.606;9.222;2023-02-01T10:13:12;3.63;;;2.10;;
12892;SDS011;6514;48.606;9.222;2023-02-01T10:15:55;3.93;;;1.90;;
12892;SDS011;6514;48.606;9.222;2023-02-01T10:18:51;3.37;;;2.10;;
12892;SDS011;6514;48.606;9.222;2023-02-01T10:21:32;3.13;;;2.00;;
12892;SDS011;6514;48.606;9.222;2023-02-01T10:24:15;4.57;;;2.23;;
12892;SDS011;6514;48.606;9.222;2023-02-01T10:26:51;4.83;;;2.20;;
12892;SDS011;6514;48.606;9.222;2023-02-01T10:29:24;5.03;;;1.93;;
12892;SDS011;6514;48.606;9.222;2023-02-01T10:31:56;5.57;;;2.00;;
12892;SDS011;6514;48.606;9.222;2023-02-01T10:34:26;6.43;;;2.30;;
12892;SDS011;6514;48.606;9.222;2023-02-01T10:36:56;4.37;;;2.00;;
12892;SDS011;6514;48.606;9.222;2023-02-01T10:39:26;6.40;;;2.23;;
12892;SDS011;6514;48.606;9.222;2023-02-01T10:41:53;5.67;;;2.13;;
12892;SDS011;6514;48.606;9.222;2023-02-01T10:44:23;4.10;;;2.50;;
12892;SDS011;6514;48.606;9.222;2023-02-01T10:46:53;7.87;;;2.43;;
12892;SDS011;6514;48.606;9.222;2023-02-01T10:49:22;5.93;;;2.20;;
12892;SDS011;6514;48.606;9.222;2023-02-01T10:51:57;4.07;;;2.37;;
12892;SDS011;6514;48.606;9.222;2023-02-01T10:54:32;6.85;;;2.70;;
12892;SDS011;6514;48.606;9.222;2023-02-01T10:57:00;5.03;;;2.10;;
12892;SDS011;6514;48.606;9.222;2023-02-01T10:59:28;8.00;;;2.30;;
12892;SDS011;6514;48.606;9.222;2023-02-01T11:01:58;5.97;;;2.70;;
12892;SDS011;6514;48.606;9.222;2023-02-01T11:04:28;5.60;;;2.00;;
12892;SDS011;6514;48.606;9.222;2023-02-01T11:07:05;6.10;;;2.40;;
12892;SDS011;6514;48.606;9.222;2023-02-01T11:09:34;3.83;;;1.73;;
12892;SDS011;6514;48.606;9.222;2023-02-01T11:12:05;8.73;;;2.60;;
12892;SDS011;6514;48.606;9.222;2023-02-01T11:14:56;6.37;;;2.57;;
12892;SDS011;6514;48.606;9.222;2023-02-01T11:17:28;6.27;;;2.20;;
12892;SDS011;6514;48.606;9.222;2023-02-01T11:20:01;5.63;;;2.20;;
12892;SDS011;6514;48.606;9.222;2023-02-01T11:22:30;8.10;;;2.50;;
12892;SDS011;6514;48.606;9.222;2023-02-01T11:24:58;7.47;;;2.70;;
12892;SDS011;6514;48.606;9.222;2023-02-01T11:27:28;9.67;;;2.70;;
12892;SDS011;6514;48.606;9.222;2023-02-01T11:29:56;6.53;;;2.20;;
12892;SDS011;6514;48.606;9.222;2023-02-01T11:32:26;5.90;;;2.27;;
12892;SDS011;6514;48.606;9.222;2023-02-01T11:34:56;7.83;;;2.87;;
12892;SDS011;6514;48.606;9.222;2023-02-01T11:37:28;4.70;;;2.23;;
12892;SDS011;6514;48.606;9.222;2023-02-01T11:39:59;7.53;;;2.80;;
12892;SDS011;6514;48.606;9.222;2023-02-01T11:42:28;7.93;;;2.37;;
12892;SDS011;6514;48.606;9.222;2023-02-01T11:45:16;8.93;;;2.80;;
12892;SDS011;6514;48.606;9.222;2023-02-01T11:47:45;8.47;;;3.73;;
12892;SDS011;6514;48.606;9.222;2023-02-01T11:50:14;5.57;;;2.17;;
12892;SDS011;6514;48.606;9.222;2023-02-01T11:52:48;7.60;;;2.77;;
12892;SDS011;6514;48.606;9.222;2023-02-01T11:55:55;9.50;;;3.53;;
12892;SDS011;6514;48.606;9.222;2023-02-01T11:58:35;8.33;;;3.40;;
12892;SDS011;6514;48.606;9.222;2023-02-01T12:01:20;6.27;;;2.53;;
12892;SDS011;6514;48.606;9.222;2023-02-01T12:04:08;7.57;;;2.90;;
12892;SDS011;6514;48.606;9.222;2023-02-01T12:06:48;8.03;;;2.70;;
12892;SDS011;6514;48.606;9.222;2023-02-01T12:09:34;7.47;;;2.70;;
12892;SDS011;6514;48.606;9.222;2023-02-01T12:12:17;6.60;;;1.97;;
12892;SDS011;6514;48.606;9.222;2023-02-01T12:14:54;3.60;;;1.90;;
12892;SDS011;6514;48.606;9.222;2023-02-01T12:17:42;5.27;;;2.57;;
12892;SDS011;6514;48.606;9.222;2023-02-01T12:20:24;3.90;;;2.20;;
12892;SDS011;6514;48.606;9.222;2023-02-01T12:23:03;4.87;;;2.00;;
12892;SDS011;6514;48.606;9.222;2023-02-01T12:25:44;4.80;;;2.40;;
12892;SDS011;6514;48.606;9.222;2023-02-01T12:28:27;8.70;;;2.30;;
12892;SDS011;6514;48.606;9.222;2023-02-01T12:31:21;4.90;;;2.07;;
12892;SDS011;6514;48.606;9.222;2023-02-01T12:34:15;7.20;;;2.17;;
12892;SDS011;6514;48.606;9.222;2023-02-01T12:37:04;4.10;;;1.80;;
12892;SDS011;6514;48.606;9.222;2023-02-01T12:39:48;6.90;;;2.40;;
12892;SDS011;6514;48.606;9.222;2023-02-01T12:42:24;7.03;;;2.30;;
12892;SDS011;6514;48.606;9.222;2023-02-01T12:44:56;4.53;;;2.00;;
12892;SDS011;6514;48.606;9.222;2023-02-01T12:47:29;7.77;;;2.40;;
12892;SDS011;6514;48.606;9.222;2023-02-01T12:50:01;7.50;;;2.40;;
12892;SDS011;6514;48.606;9.222;2023-02-01T12:52:39;6.47;;;2.20;;
12892;SDS011;6514;48.606;9.222;2023-02-01T12:55:15;5.17;;;2.37;;
12892;SDS011;6514;48.606;9.222;2023-02-01T12:57:50;5.90;;;2.50;;
12892;SDS011;6514;48.606;9.222;2023-02-01T13:00:22;8.83;;;2.40;;
12892;SDS011;6514;48.606;9.222;2023-02-01T13:02:55;7.43;;;2.10;;
12892;SDS011;6514;48.606;9.222;2023-02-01T13:05:28;8.50;;;2.20;;
12892;SDS011;6514;48.606;9.222;2023-02-01T13:08:02;5.37;;;2.37;;
12892;SDS011;6514;48.606;9.222;2023-02-01T13:10:33;7.87;;;2.37;;
12892;SDS011;6514;48.606;9.222;2023-02-01T13:13:10;6.80;;;2.00;;
12892;SDS011;6514;48.606;9.222;2023-02-01T13:15:44;10.00;;;2.17;;
12892;SDS011;6514;48.606;9.222;2023-02-01T13:18:14;8.43;;;2.47;;
12892;SDS011;6514;48.606;9.222;2023-02-01T13:20:47;8.13;;;2.33;;
12892;SDS011;6514;48.606;9.222;2023-02-01T13:23:22;8.20;;;1.90;;
12892;SDS011;6514;48.606;9.222;2023-02-01T13:25:53;7.03;;;2.00;;
12892;SDS011;6514;48.606;9.222;2023-02-01T13:28:25;7.80;;;2.17;;
12892;SDS011;6514;48.606;9.222;2023-02-01T13:31:05;7.87;;;2.80;;
12892;SDS011;6514;48.606;9.222;2023-02-01T13:34:15;8.63;;;2.23;;
12892;SDS011;6514;48.606;9.222;2023-02-01T13:37:02;7.97;;;2.20;;
12892;SDS011;6514;48.606;9.222;2023-02-01T13:39:43;6.00;;;2.00;;
12892;SDS011;6514;48.606;9.222;2023-02-01T13:42:18;4.47;;;1.90;;
12892;SDS011;6514;48.606;9.222;2023-02-01T13:44:50;7.57;;;2.00;;
12892;SDS011;6514;48.606;9.222;2023-02-01T13:47:26;3.80;;;2.10;;
12892;SDS011;6514;48.606;9.222;2023-02-01T13:49:56;5.67;;;2.40;;
12892;SDS011;6514;48.606;9.222;2023-02-01T13:52:31;8.50;;;1.97;;
12892;SDS011;6514;48.606;9.222;2023-02-01T13:55:03;5.80;;;2.07;;
12892;SDS011;6514;48.606;9.222;2023-02-01T13:57:58;8.47;;;2.40;;
12892;SDS011;6514;48.606;9.222;2023-02-01T14:00:29;5.70;;;1.87;;
12892;SDS011;6514;48.606;9.222;2023-02-01T14:05:57;6.77;;;2.40;;
12892;SDS011;6514;48.606;9.222;2023-02-01T14:09:13;7.93;;;2.50;;
12892;SDS011;6514;48.606;9.222;2023-02-01T14:11:43;6.27;;;1.97;;
12892;SDS011;6514;48.606;9.222;2023-02-01T14:23:17;9.70;;;2.40;;
12892;SDS011;6514;48.606;9.222;2023-02-01T14:25:59;6.70;;;2.50;;
12892;SDS011;6514;48.606;9.222;2023-02-01T14:28:32;7.20;;;2.30;;
12892;SDS011;6514;48.606;9.222;2023-02-01T14:31:13;10.40;;;2.47;;
12892;SDS011;6514;48.606;9.222;2023-02-01T14:33:45;5.67;;;2.20;;
12892;SDS011;6514;48.606;9.222;2023-02-01T14:36:13;7.57;;;2.40;;
12892;SDS011;6514;48.606;9.222;2023-02-01T14:38:46;6.03;;;2.00;;
12892;SDS011;6514;48.606;9.222;2023-02-01T14:41:24;7.77;;;2.83;;
12892;SDS011;6514;48.606;9.222;2023-02-01T14:44:22;7.80;;;2.63;;
12892;SDS011;6514;48.606;9.222;2023-02-01T14:47:07;8.27;;;2.40;;
12892;SDS011;6514;48.606;9.222;2023-02-01T14:49:52;6.47;;;2.67;;
12892;SDS011;6514;48.606;9.222;2023-02-01T14:52:23;11.90;;;2.87;;
12892;SDS011;6514;48.606;9.222;2023-02-01T14:54:57;7.13;;;2.50;;
12892;SDS011;6514;48.606;9.222;2023-02-01T14:57:30;11.53;;;2.80;;
12892;SDS011;6514;48.606;9.222;2023-02-01T15:00:06;7.60;;;2.60;;
12892;SDS011;6514;48.606;9.222;2023-02-01T15:02:49;6.77;;;2.40;;
12892;SDS011;6514;48.606;9.222;2023-02-01T15:05:26;5.07;;;2.90;;
12892;SDS011;6514;48.606;9.222;2023-02-01T15:08:00;8.00;;;3.03;;
12892;SDS011;6514;48.606;9.222;2023-02-01T15:10:32;8.70;;;2.93;;
12892;SDS011;6514;48.606;9.222;2023-02-01T15:13:12;5.87;;;2.93;;
12892;SDS011;6514;48.606;9.222;2023-02-01T15:15:59;10.23;;;3.10;;
12892;SDS011;6514;48.606;9.222;2023-02-01T15:18:28;7.87;;;2.50;;
12892;SDS011;6514;48.606;9.222;2023-02-01T15:20:57;9.03;;;2.77;;
12892;SDS011;6514;48.606;9.222;2023-02-01T15:23:25;9.70;;;2.70;;
12892;SDS011;6514;48.606;9.222;2023-02-01T15:25:53;8.33;;;2.47;;
12892;SDS011;6514;48.606;9.222;2023-02-01T15:28:21;5.03;;;2.77;;
12892;SDS011;6514;48.606;9.222;2023-02-01T15:30:52;6.27;;;2.40;;
12892;SDS011;6514;48.606;9.222;2023-02-01T15:33:21;4.50;;;2.40;;
12892;SDS011;6514;48.606;9.222;2023-02-01T15:35:49;8.67;;;2.63;;
12892;SDS011;6514;48.606;9.222;2023-02-01T15:38:35;7.63;;;2.70;;
12892;SDS011;6514;48.606;9.222;2023-02-01T15:41:04;9.77;;;3.13;;
12892;SDS011;6514;48.606;9.222;2023-02-01T15:43:39;7.47;;;2.40;;
12892;SDS011;6514;48.606;9.222;2023-02-01T15:46:10;8.03;;;2.70;;